sensor_id;sensor_type;location;lat;lon;timestamp;P1;durP1;ratioP1;P2;durP2;ratioP2
17955;SDS011;27666;51.498;11.966;2023-03-16T00:02:09;11.00;;;4.47;;
17955;SDS011;27666;51.498;11.966;2023-03-16T00:04:57;5.73;;;4.00;;
17955;SDS011;27666;51.498;11.966;2023-03-16T00:07:45;6.40;;;3.60;;
17955;SDS011;27666;51.498;11.966;2023-03-16T00:10:31;7.50;;;3.90;;
17955;SDS011;27666;51.498;11.966;2023-03-16T00:13:18;8.13;;;3.30;;
17955;SDS011;27666;51.498;11.966;2023-03-16T00:16:08;10.93;;;3.80;;
17955;SDS011;27666;51.498;11.966;2023-03-16T00:19:00;7.47;;;3.70;;
17955;SDS011;27666;51.498;11.966;2023-03-16T00:21:49;6.27;;;3.80;;
17955;SDS011;27666;51.498;11.966;2023-03-16T00:24:35;9.17;;;3.60;;
17955;SDS011;27666;51.498;11.966;2023-03-16T00:27:22;5.33;;;3.07;;
17955;SDS011;27666;51.498;11.966;2023-03-16T00:30:11;6.70;;;2.93;;
17955;SDS011;27666;51.498;11.966;2023-03-16T00:32:58;4.87;;;2.80;;
17955;SDS011;27666;51.498;11.966;2023-03-16T00:35:46;8.53;;;3.30;;
17955;SDS011;27666;51.498;11.966;2023-03-16T00:38:36;6.83;;;2.83;;
17955;SDS011;27666;51.498;11.966;2023-03-16T00:41:24;4.53;;;2.90;;
17955;SDS011;27666;51.498;11.966;2023-03-16T00:44:11;4.90;;;3.00;;
17955;SDS011;27666;51.498;11.966;2023-03-16T00:46:57;5.00;;;3.40;;
17955;SDS011;27666;51.498;11.966;2023-03-16T00:49:45;6.33;;;3.27;;
17955;SDS011;27666;51.498;11.966;2023-03-16T00:52:31;7.43;;;3.10;;
17955;SDS011;27666;51.498;11.966;2023-03-16T00:55:20;5.50;;;3.20;;
17955;SDS011;27666;51.498;11.966;2023-03-16T00:58:07;5.53;;;3.17;;
17955;SDS011;27666;51.498;11.966;2023-03-16T01:00:53;7.83;;;3.23;;
17955;SDS011;27666;51.498;11.966;2023-03-16T01:03:41;5.40;;;2.80;;
17955;SDS011;27666;51.498;11.966;2023-03-16T01:06:28;5.53;;;3.30;;
17955;SDS011;27666;51.498;11.966;2023-03-16T01:09:15;5.40;;;3.30;;
17955;SDS011;27666;51.498;11.966;2023-03-16T01:12:03;8.80;;;3.03;;
17955;SDS011;27666;51.498;11.966;2023-03-16T01:14:51;4.60;;;2.90;;
17955;SDS011;27666;51.498;11.966;2023-03-16T01:17:39;6.30;;;3.30;;
17955;SDS011;27666;51.498;11.966;2023-03-16T01:20:25;3.77;;;2.90;;
17955;SDS011;27666;51.498;11.966;2023-03-16T01:23:13;4.83;;;3.20;;
17955;SDS011;27666;51.498;11.966;2023-03-16T01:26:00;6.37;;;2.90;;
17955;SDS011;27666;51.498;11.966;2023-03-16T01:28:49;5.20;;;2.97;;
17955;SDS011;27666;51.498;11.966;2023-03-16T01:31:35;5.60;;;2.87;;
17955;SDS011;27666;51.498;11.966;2023-03-16T01:34:22;12.60;;;3.67;;
17955;SDS011;27666;51.498;11.966;2023-03-16T01:37:08;8.53;;;3.43;;
17955;SDS011;27666;51.498;11.966;2023-03-16T01:39:54;7.40;;;3.63;;
17955;SDS011;27666;51.498;11.966;2023-03-16T01:42:45;7.53;;;3.00;;
17955;SDS011;27666;51.498;11.966;2023-03-16T01:49:03;4.67;;;3.07;;
17955;SDS011;27666;51.498;11.966;2023-03-16T01:51:53;3.47;;;2.77;;
17955;SDS011;27666;51.498;11.966;2023-03-16T01:54:46;7.33;;;3.57;;
17955;SDS011;27666;51.498;11.966;2023-03-16T01:57:35;4.03;;;2.73;;
17955;SDS011;27666;51.498;11.966;2023-03-16T02:00:26;3.70;;;3.00;;
17955;SDS011;27666;51.498;11.966;2023-03-16T02:03:16;4.63;;;2.53;;
17955;SDS011;27666;51.498;11.966;2023-03-16T02:06:07;6.50;;;2.80;;
17955;SDS011;27666;51.498;11.966;2023-03-16T02:08:56;3.13;;;2.77;;
17955;SDS011;27666;51.498;11.966;2023-03-16T02:11:45;6.37;;;3.13;;
17955;SDS011;27666;51.498;11.966;2023-03-16T02:14:32;6.77;;;3.17;;
17955;SDS011;27666;51.498;11.966;2023-03-16T02:17:19;6.23;;;3.17;;
17955;SDS011;27666;51.498;11.966;2023-03-16T02:20:11;5.57;;;3.03;;
17955;SDS011;27666;51.498;11.966;2023-03-16T02:23:09;4.73;;;2.70;;
17955;SDS011;27666;51.498;11.966;2023-03-16T02:26:02;3.10;;;2.77;;
17955;SDS011;27666;51.498;11.966;2023-03-16T02:28:58;6.77;;;2.77;;
17955;SDS011;27666;51.498;11.966;2023-03-16T02:31:56;6.30;;;3.10;;
17955;SDS011;27666;51.498;11.966;2023-03-16T02:34:46;4.07;;;2.90;;
17955;SDS011;27666;51.498;11.966;2023-03-16T02:37:32;5.43;;;2.80;;
17955;SDS011;27666;51.498;11.966;2023-03-16T02:40:20;6.30;;;2.93;;
17955;SDS011;27666;51.498;11.966;2023-03-16T02:43:09;5.60;;;3.20;;
17955;SDS011;27666;51.498;11.966;2023-03-16T02:46:00;4.03;;;3.43;;
17955;SDS011;27666;51.498;11.966;2023-03-16T02:48:52;5.67;;;2.97;;
17955;SDS011;27666;51.498;11.966;2023-03-16T02:51:46;7.93;;;3.40;;
17955;SDS011;27666;51.498;11.966;2023-03-16T02:54:32;4.00;;;3.00;;
17955;SDS011;27666;51.498;11.966;2023-03-16T02:57:19;4.83;;;3.20;;
17955;SDS011;27666;51.498;11.966;2023-03-16T03:00:07;7.97;;;3.40;;
17955;SDS011;27666;51.498;11.966;2023-03-16T03:03:00;5.17;;;3.30;;
17955;SDS011;27666;51.498;11.966;2023-03-16T03:05:48;7.27;;;3.57;;
17955;SDS011;27666;51.498;11.966;2023-03-16T03:08:35;5.03;;;3.20;;
17955;SDS011;27666;51.498;11.966;2023-03-16T03:11:22;5.10;;;2.90;;
17955;SDS011;27666;51.498;11.966;2023-03-16T03:14:09;5.37;;;3.50;;
17955;SDS011;27666;51.498;11.966;2023-03-16T03:16:55;4.87;;;2.80;;
17955;SDS011;27666;51.498;11.966;2023-03-16T03:19:42;5.60;;;3.07;;
17955;SDS011;27666;51.498;11.966;2023-03-16T03:22:30;6.50;;;3.43;;
17955;SDS011;27666;51.498;11.966;2023-03-16T03:25:18;6.07;;;3.30;;
17955;SDS011;27666;51.498;11.966;2023-03-16T03:28:06;6.27;;;3.50;;
17955;SDS011;27666;51.498;11.966;2023-03-16T03:30:53;7.87;;;3.43;;
17955;SDS011;27666;51.498;11.966;2023-03-16T03:33:40;4.67;;;3.07;;
17955;SDS011;27666;51.498;11.966;2023-03-16T03:36:26;5.47;;;3.20;;
17955;SDS011;27666;51.498;11.966;2023-03-16T03:39:14;7.43;;;3.50;;
17955;SDS011;27666;51.498;11.966;2023-03-16T03:42:01;6.87;;;3.53;;
17955;SDS011;27666;51.498;11.966;2023-03-16T03:44:47;11.30;;;4.20;;
17955;SDS011;27666;51.498;11.966;2023-03-16T03:47:35;8.13;;;3.20;;
17955;SDS011;27666;51.498;11.966;2023-03-16T03:50:21;6.20;;;3.40;;
17955;SDS011;27666;51.498;11.966;2023-03-16T03:53:07;5.53;;;3.23;;
17955;SDS011;27666;51.498;11.966;2023-03-16T03:55:55;4.63;;;3.13;;
17955;SDS011;27666;51.498;11.966;2023-03-16T03:58:42;4.87;;;3.10;;
17955;SDS011;27666;51.498;11.966;2023-03-16T04:01:28;8.97;;;3.47;;
17955;SDS011;27666;51.498;11.966;2023-03-16T04:04:17;9.23;;;3.70;;
17955;SDS011;27666;51.498;11.966;2023-03-16T04:07:04;5.07;;;3.90;;
17955;SDS011;27666;51.498;11.966;2023-03-16T04:09:50;7.17;;;4.03;;
17955;SDS011;27666;51.498;11.966;2023-03-16T04:12:38;6.50;;;3.90;;
17955;SDS011;27666;51.498;11.966;2023-03-16T04:15:25;4.60;;;2.87;;
17955;SDS011;27666;51.498;11.966;2023-03-16T04:18:12;6.47;;;3.57;;
17955;SDS011;27666;51.498;11.966;2023-03-16T04:20:58;6.50;;;3.60;;
17955;SDS011;27666;51.498;11.966;2023-03-16T04:23:44;7.37;;;3.67;;
17955;SDS011;27666;51.498;11.966;2023-03-16T04:26:31;7.00;;;4.67;;
17955;SDS011;27666;51.498;11.966;2023-03-16T04:29:19;4.20;;;3.20;;
17955;SDS011;27666;51.498;11.966;2023-03-16T04:32:06;7.80;;;3.90;;
17955;SDS011;27666;51.498;11.966;2023-03-16T04:34:53;5.73;;;3.33;;
17955;SDS011;27666;51.498;11.966;2023-03-16T04:37:40;6.37;;;3.73;;
17955;SDS011;27666;51.498;11.966;2023-03-16T04:40:26;5.67;;;3.43;;
17955;SDS011;27666;51.498;11.966;2023-03-16T04:43:14;6.20;;;3.73;;
17955;SDS011;27666;51.498;11.966;2023-03-16T04:46:02;10.57;;;4.27;;
17955;SDS011;27666;51.498;11.966;2023-03-16T04:48:50;6.20;;;4.17;;
17955;SDS011;27666;51.498;11.966;2023-03-16T04:51:37;7.97;;;4.37;;
17955;SDS011;27666;51.498;11.966;2023-03-16T04:54:26;15.43;;;4.57;;
17955;SDS011;27666;51.498;11.966;2023-03-16T04:57:12;8.07;;;4.60;;
17955;SDS011;27666;51.498;11.966;2023-03-16T05:00:03;11.17;;;6.57;;
17955;SDS011;27666;51.498;11.966;2023-03-16T05:02:56;11.80;;;5.07;;
17955;SDS011;27666;51.498;11.966;2023-03-16T05:05:44;8.23;;;4.10;;
17955;SDS011;27666;51.498;11.966;2023-03-16T05:08:32;5.57;;;3.90;;
17955;SDS011;27666;51.498;11.966;2023-03-16T05:11:18;6.73;;;4.70;;
17955;SDS011;27666;51.498;11.966;2023-03-16T05:14:05;10.20;;;5.60;;
17955;SDS011;27666;51.498;11.966;2023-03-16T05:16:52;7.37;;;4.40;;
17955;SDS011;27666;51.498;11.966;2023-03-16T05:19:39;6.33;;;4.57;;
17955;SDS011;27666;51.498;11.966;2023-03-16T05:22:26;8.97;;;4.70;;
17955;SDS011;27666;51.498;11.966;2023-03-16T05:25:13;9.00;;;4.80;;
17955;SDS011;27666;51.498;11.966;2023-03-16T05:28:01;9.17;;;4.90;;
17955;SDS011;27666;51.498;11.966;2023-03-16T05:30:49;8.77;;;5.10;;
17955;SDS011;27666;51.498;11.966;2023-03-16T05:33:36;9.23;;;5.33;;
17955;SDS011;27666;51.498;11.966;2023-03-16T05:36:24;7.30;;;4.70;;
17955;SDS011;27666;51.498;11.966;2023-03-16T05:39:11;17.40;;;5.77;;
17955;SDS011;27666;51.498;11.966;2023-03-16T05:41:57;12.13;;;6.57;;
17955;SDS011;27666;51.498;11.966;2023-03-16T05:44:44;12.90;;;7.00;;
17955;SDS011;27666;51.498;11.966;2023-03-16T05:47:30;13.13;;;6.23;;
17955;SDS011;27666;51.498;11.966;2023-03-16T05:50:17;18.70;;;9.00;;
17955;SDS011;27666;51.498;11.966;2023-03-16T05:53:05;13.93;;;6.57;;
17955;SDS011;27666;51.498;11.966;2023-03-16T05:55:52;9.77;;;5.83;;
17955;SDS011;27666;51.498;11.966;2023-03-16T05:58:39;15.27;;;8.20;;
17955;SDS011;27666;51.498;11.966;2023-03-16T06:01:26;8.27;;;5.77;;
17955;SDS011;27666;51.498;11.966;2023-03-16T06:04:12;10.87;;;5.50;;
17955;SDS011;27666;51.498;11.966;2023-03-16T06:06:58;10.97;;;6.00;;
17955;SDS011;27666;51.498;11.966;2023-03-16T06:09:46;10.33;;;5.87;;
17955;SDS011;27666;51.498;11.966;2023-03-16T06:12:33;15.63;;;7.33;;
17955;SDS011;27666;51.498;11.966;2023-03-16T06:15:20;14.57;;;5.97;;
17955;SDS011;27666;51.498;11.966;2023-03-16T06:18:09;11.13;;;6.17;;
17955;SDS011;27666;51.498;11.966;2023-03-16T06:20:55;10.70;;;6.10;;
17955;SDS011;27666;51.498;11.966;2023-03-16T06:23:42;10.30;;;5.80;;
17955;SDS011;27666;51.498;11.966;2023-03-16T06:26:30;14.03;;;6.80;;
17955;SDS011;27666;51.498;11.966;2023-03-16T06:29:17;10.90;;;6.00;;
17955;SDS011;27666;51.498;11.966;2023-03-16T06:32:04;9.33;;;4.53;;
17955;SDS011;27666;51.498;11.966;2023-03-16T06:34:51;6.60;;;4.07;;
17955;SDS011;27666;51.498;11.966;2023-03-16T06:37:37;7.43;;;4.10;;
17955;SDS011;27666;51.498;11.966;2023-03-16T06:40:24;6.93;;;4.50;;
17955;SDS011;27666;51.498;11.966;2023-03-16T06:43:12;6.83;;;4.40;;
17955;SDS011;27666;51.498;11.966;2023-03-16T06:45:59;8.57;;;4.60;;
17955;SDS011;27666;51.498;11.966;2023-03-16T06:48:47;8.10;;;4.97;;
17955;SDS011;27666;51.498;11.966;2023-03-16T06:51:34;10.30;;;5.13;;
17955;SDS011;27666;51.498;11.966;2023-03-16T06:54:20;8.60;;;4.77;;
17955;SDS011;27666;51.498;11.966;2023-03-16T06:57:07;7.80;;;4.27;;
17955;SDS011;27666;51.498;11.966;2023-03-16T06:59:55;12.00;;;5.47;;
17955;SDS011;27666;51.498;11.966;2023-03-16T07:02:41;19.47;;;6.10;;
17955;SDS011;27666;51.498;11.966;2023-03-16T07:05:28;7.67;;;5.30;;
17955;SDS011;27666;51.498;11.966;2023-03-16T07:08:14;14.83;;;5.97;;
17955;SDS011;27666;51.498;11.966;2023-03-16T07:11:01;8.00;;;5.03;;
17955;SDS011;27666;51.498;11.966;2023-03-16T07:13:48;15.03;;;6.07;;
17955;SDS011;27666;51.498;11.966;2023-03-16T07:16:37;14.87;;;6.13;;
17955;SDS011;27666;51.498;11.966;2023-03-16T07:19:23;12.50;;;5.90;;
17955;SDS011;27666;51.498;11.966;2023-03-16T07:22:10;13.20;;;5.93;;
17955;SDS011;27666;51.498;11.966;2023-03-16T07:24:56;12.10;;;6.57;;
17955;SDS011;27666;51.498;11.966;2023-03-16T07:27:43;8.90;;;5.37;;
17955;SDS011;27666;51.498;11.966;2023-03-16T07:30:31;10.20;;;5.27;;
17955;SDS011;27666;51.498;11.966;2023-03-16T07:33:18;11.10;;;5.60;;
17955;SDS011;27666;51.498;11.966;2023-03-16T07:36:05;15.50;;;5.43;;
17955;SDS011;27666;51.498;11.966;2023-03-16T07:38:54;14.30;;;5.90;;
17955;SDS011;27666;51.498;11.966;2023-03-16T07:41:41;10.10;;;5.20;;
17955;SDS011;27666;51.498;11.966;2023-03-16T07:44:27;12.00;;;6.33;;
17955;SDS011;27666;51.498;11.966;2023-03-16T07:47:14;15.53;;;6.40;;
17955;SDS011;27666;51.498;11.966;2023-03-16T07:50:02;15.53;;;6.33;;
17955;SDS011;27666;51.498;11.966;2023-03-16T07:52:49;12.87;;;5.63;;
17955;SDS011;27666;51.498;11.966;2023-03-16T07:55:36;13.50;;;4.90;;
17955;SDS011;27666;51.498;11.966;2023-03-16T07:58:23;11.00;;;4.97;;
17955;SDS011;27666;51.498;11.966;2023-03-16T08:01:10;11.63;;;5.80;;
17955;SDS011;27666;51.498;11.966;2023-03-16T08:03:56;10.37;;;5.20;;
17955;SDS011;27666;51.498;11.966;2023-03-16T08:06:44;9.00;;;4.97;;
17955;SDS011;27666;51.498;11.966;2023-03-16T08:09:32;16.13;;;5.80;;
17955;SDS011;27666;51.498;11.966;2023-03-16T08:12:19;11.47;;;4.63;;
17955;SDS011;27666;51.498;11.966;2023-03-16T08:15:06;6.90;;;3.10;;
17955;SDS011;27666;51.498;11.966;2023-03-16T08:17:54;13.33;;;4.60;;
17955;SDS011;27666;51.498;11.966;2023-03-16T08:20:40;10.00;;;3.20;;
17955;SDS011;27666;51.498;11.966;2023-03-16T08:23:29;15.90;;;4.00;;
17955;SDS011;27666;51.498;11.966;2023-03-16T08:26:17;8.97;;;4.07;;
17955;SDS011;27666;51.498;11.966;2023-03-16T08:29:04;5.07;;;3.20;;
17955;SDS011;27666;51.498;11.966;2023-03-16T08:31:51;12.57;;;3.93;;
17955;SDS011;27666;51.498;11.966;2023-03-16T08:34:40;7.13;;;3.40;;
17955;SDS011;27666;51.498;11.966;2023-03-16T08:37:27;9.07;;;3.60;;
17955;SDS011;27666;51.498;11.966;2023-03-16T08:40:15;7.13;;;3.67;;
17955;SDS011;27666;51.498;11.966;2023-03-16T08:43:04;4.37;;;2.93;;
17955;SDS011;27666;51.498;11.966;2023-03-16T08:45:50;10.63;;;3.50;;
17955;SDS011;27666;51.498;11.966;2023-03-16T08:48:37;7.90;;;3.87;;
17955;SDS011;27666;51.498;11.966;2023-03-16T08:51:25;10.60;;;3.37;;
17955;SDS011;27666;51.498;11.966;2023-03-16T08:54:13;8.97;;;3.40;;
17955;SDS011;27666;51.498;11.966;2023-03-16T08:57:02;5.47;;;2.97;;
17955;SDS011;27666;51.498;11.966;2023-03-16T08:59:49;8.30;;;2.87;;
17955;SDS011;27666;51.498;11.966;2023-03-16T09:02:35;6.07;;;2.93;;
17955;SDS011;27666;51.498;11.966;2023-03-16T09:05:23;5.63;;;2.60;;
17955;SDS011;27666;51.498;11.966;2023-03-16T09:08:10;10.00;;;3.97;;
17955;SDS011;27666;51.498;11.966;2023-03-16T09:10:58;8.30;;;3.27;;
17955;SDS011;27666;51.498;11.966;2023-03-16T09:13:46;4.83;;;2.93;;
17955;SDS011;27666;51.498;11.966;2023-03-16T09:16:36;7.60;;;3.30;;
17955;SDS011;27666;51.498;11.966;2023-03-16T09:19:23;6.50;;;2.70;;
17955;SDS011;27666;51.498;11.966;2023-03-16T09:22:10;4.83;;;2.90;;
17955;SDS011;27666;51.498;11.966;2023-03-16T09:24:57;7.97;;;2.77;;
17955;SDS011;27666;51.498;11.966;2023-03-16T09:27:43;7.53;;;3.30;;
17955;SDS011;27666;51.498;11.966;2023-03-16T09:30:32;4.93;;;2.60;;
17955;SDS011;27666;51.498;11.966;2023-03-16T09:33:18;8.87;;;2.37;;
17955;SDS011;27666;51.498;11.966;2023-03-16T09:36:05;7.47;;;3.13;;
17955;SDS011;27666;51.498;11.966;2023-03-16T09:38:54;8.07;;;3.33;;
17955;SDS011;27666;51.498;11.966;2023-03-16T09:41:43;4.07;;;2.30;;
17955;SDS011;27666;51.498;11.966;2023-03-16T09:44:33;4.40;;;2.27;;
17955;SDS011;27666;51.498;11.966;2023-03-16T09:47:30;12.93;;;3.13;;
17955;SDS011;27666;51.498;11.966;2023-03-16T09:50:20;6.70;;;2.60;;
17955;SDS011;27666;51.498;11.966;2023-03-16T09:53:30;7.60;;;3.17;;
17955;SDS011;27666;51.498;11.966;2023-03-16T09:56:21;8.17;;;2.87;;
17955;SDS011;27666;51.498;11.966;2023-03-16T09:59:15;5.57;;;2.70;;
17955;SDS011;27666;51.498;11.966;2023-03-16T10:02:12;4.53;;;2.40;;
17955;SDS011;27666;51.498;11.966;2023-03-16T10:05:21;5.00;;;2.60;;
17955;SDS011;27666;51.498;11.966;2023-03-16T10:08:11;17.47;;;5.00;;
17955;SDS011;27666;51.498;11.966;2023-03-16T10:11:02;7.47;;;3.57;;
17955;SDS011;27666;51.498;11.966;2023-03-16T10:13:57;10.87;;;3.73;;
17955;SDS011;27666;51.498;11.966;2023-03-16T10:16:51;5.07;;;2.60;;
17955;SDS011;27666;51.498;11.966;2023-03-16T10:19:44;8.83;;;2.67;;
17955;SDS011;27666;51.498;11.966;2023-03-16T10:22:37;3.67;;;2.50;;
17955;SDS011;27666;51.498;11.966;2023-03-16T10:25:29;14.50;;;4.83;;
17955;SDS011;27666;51.498;11.966;2023-03-16T10:28:20;8.27;;;3.13;;
17955;SDS011;27666;51.498;11.966;2023-03-16T10:31:08;8.17;;;2.90;;
17955;SDS011;27666;51.498;11.966;2023-03-16T10:34:01;3.13;;;2.80;;
17955;SDS011;27666;51.498;11.966;2023-03-16T10:36:51;5.47;;;2.50;;
17955;SDS011;27666;51.498;11.966;2023-03-16T10:39:40;6.20;;;3.07;;
17955;SDS011;27666;51.498;11.966;2023-03-16T10:42:27;8.50;;;2.93;;
17955;SDS011;27666;51.498;11.966;2023-03-16T10:45:18;5.10;;;2.87;;
17955;SDS011;27666;51.498;11.966;2023-03-16T10:48:11;5.30;;;2.77;;
17955;SDS011;27666;51.498;11.966;2023-03-16T10:51:01;3.80;;;2.80;;
17955;SDS011;27666;51.498;11.966;2023-03-16T10:53:51;5.40;;;2.70;;
17955;SDS011;27666;51.498;11.966;2023-03-16T10:56:42;10.63;;;3.23;;
17955;SDS011;27666;51.498;11.966;2023-03-16T10:59:30;7.17;;;3.17;;
17955;SDS011;27666;51.498;11.966;2023-03-16T11:02:19;8.10;;;3.37;;
17955;SDS011;27666;51.498;11.966;2023-03-16T11:05:11;6.57;;;3.63;;
17955;SDS011;27666;51.498;11.966;2023-03-16T11:08:01;11.23;;;3.47;;
17955;SDS011;27666;51.498;11.966;2023-03-16T11:10:54;7.00;;;3.20;;
17955;SDS011;27666;51.498;11.966;2023-03-16T11:13:45;7.13;;;4.07;;
17955;SDS011;27666;51.498;11.966;2023-03-16T11:16:33;3.93;;;2.83;;
17955;SDS011;27666;51.498;11.966;2023-03-16T11:19:26;5.87;;;3.00;;
17955;SDS011;27666;51.498;11.966;2023-03-16T11:22:15;4.70;;;2.60;;
17955;SDS011;27666;51.498;11.966;2023-03-16T11:25:08;9.03;;;2.77;;
17955;SDS011;27666;51.498;11.966;2023-03-16T11:28:02;5.90;;;2.57;;
17955;SDS011;27666;51.498;11.966;2023-03-16T11:31:00;4.07;;;2.57;;
17955;SDS011;27666;51.498;11.966;2023-03-16T11:33:58;7.87;;;3.30;;
17955;SDS011;27666;51.498;11.966;2023-03-16T11:36:48;6.40;;;2.60;;
17955;SDS011;27666;51.498;11.966;2023-03-16T11:39:40;5.10;;;2.87;;
17955;SDS011;27666;51.498;11.966;2023-03-16T11:42:36;9.90;;;3.07;;
17955;SDS011;27666;51.498;11.966;2023-03-16T11:45:27;6.70;;;3.13;;
17955;SDS011;27666;51.498;11.966;2023-03-16T11:51:31;4.97;;;2.70;;
17955;SDS011;27666;51.498;11.966;2023-03-16T11:54:38;7.43;;;2.70;;
17955;SDS011;27666;51.498;11.966;2023-03-16T11:57:38;5.33;;;3.13;;
17955;SDS011;27666;51.498;11.966;2023-03-16T12:00:38;5.37;;;2.33;;
17955;SDS011;27666;51.498;11.966;2023-03-16T12:07:11;6.30;;;2.60;;
17955;SDS011;27666;51.498;11.966;2023-03-16T12:10:08;5.20;;;2.47;;
17955;SDS011;27666;51.498;11.966;2023-03-16T12:13:08;5.57;;;2.73;;
17955;SDS011;27666;51.498;11.966;2023-03-16T12:16:14;15.73;;;3.03;;
17955;SDS011;27666;51.498;11.966;2023-03-16T12:19:08;5.63;;;2.20;;
17955;SDS011;27666;51.498;11.966;2023-03-16T12:22:02;2.87;;;2.57;;
17955;SDS011;27666;51.498;11.966;2023-03-16T12:24:55;3.73;;;2.20;;
17955;SDS011;27666;51.498;11.966;2023-03-16T12:27:42;3.87;;;2.93;;
17955;SDS011;27666;51.498;11.966;2023-03-16T12:30:34;5.40;;;2.47;;
17955;SDS011;27666;51.498;11.966;2023-03-16T12:33:35;3.23;;;2.20;;
17955;SDS011;27666;51.498;11.966;2023-03-16T12:40:16;2.23;;;2.03;;
17955;SDS011;27666;51.498;11.966;2023-03-16T12:43:14;4.80;;;2.20;;
17955;SDS011;27666;51.498;11.966;2023-03-16T12:46:10;9.97;;;2.57;;
17955;SDS011;27666;51.498;11.966;2023-03-16T12:48:59;4.03;;;2.00;;
17955;SDS011;27666;51.498;11.966;2023-03-16T12:51:57;6.13;;;2.40;;
17955;SDS011;27666;51.498;11.966;2023-03-16T12:54:49;3.43;;;2.10;;
17955;SDS011;27666;51.498;11.966;2023-03-16T12:57:39;3.63;;;2.10;;
17955;SDS011;27666;51.498;11.966;2023-03-16T13:00:31;3.63;;;2.00;;
17955;SDS011;27666;51.498;11.966;2023-03-16T13:03:20;2.93;;;2.10;;
17955;SDS011;27666;51.498;11.966;2023-03-16T13:06:15;5.73;;;2.23;;
17955;SDS011;27666;51.498;11.966;2023-03-16T13:09:03;4.80;;;2.50;;
17955;SDS011;27666;51.498;11.966;2023-03-16T13:11:51;5.97;;;2.57;;
17955;SDS011;27666;51.498;11.966;2023-03-16T13:14:39;4.87;;;2.77;;
17955;SDS011;27666;51.498;11.966;2023-03-16T13:17:28;8.57;;;2.70;;
17955;SDS011;27666;51.498;11.966;2023-03-16T13:20:24;6.10;;;2.47;;
17955;SDS011;27666;51.498;11.966;2023-03-16T13:23:19;2.97;;;2.10;;
17955;SDS011;27666;51.498;11.966;2023-03-16T13:26:11;5.93;;;2.93;;
17955;SDS011;27666;51.498;11.966;2023-03-16T13:29:02;6.97;;;2.07;;
17955;SDS011;27666;51.498;11.966;2023-03-16T13:32:05;2.97;;;1.93;;
17955;SDS011;27666;51.498;11.966;2023-03-16T13:34:56;7.23;;;2.53;;
17955;SDS011;27666;51.498;11.966;2023-03-16T13:37:43;2.23;;;2.13;;
17955;SDS011;27666;51.498;11.966;2023-03-16T13:40:31;2.83;;;2.30;;
17955;SDS011;27666;51.498;11.966;2023-03-16T13:43:20;4.47;;;2.43;;
17955;SDS011;27666;51.498;11.966;2023-03-16T13:46:12;5.57;;;2.90;;
17955;SDS011;27666;51.498;11.966;2023-03-16T13:49:02;4.57;;;2.40;;
17955;SDS011;27666;51.498;11.966;2023-03-16T13:51:49;5.13;;;2.53;;
17955;SDS011;27666;51.498;11.966;2023-03-16T13:54:36;3.83;;;2.50;;
17955;SDS011;27666;51.498;11.966;2023-03-16T13:57:23;4.03;;;2.23;;
17955;SDS011;27666;51.498;11.966;2023-03-16T14:00:14;8.43;;;3.10;;
17955;SDS011;27666;51.498;11.966;2023-03-16T14:03:08;4.70;;;2.20;;
17955;SDS011;27666;51.498;11.966;2023-03-16T14:06:03;7.33;;;2.67;;
17955;SDS011;27666;51.498;11.966;2023-03-16T14:08:52;4.33;;;2.07;;
17955;SDS011;27666;51.498;11.966;2023-03-16T14:11:42;2.83;;;2.10;;
17955;SDS011;27666;51.498;11.966;2023-03-16T14:14:36;2.43;;;2.00;;
17955;SDS011;27666;51.498;11.966;2023-03-16T14:17:24;5.17;;;1.70;;
17955;SDS011;27666;51.498;11.966;2023-03-16T14:20:16;7.37;;;2.90;;
17955;SDS011;27666;51.498;11.966;2023-03-16T14:23:12;5.93;;;2.30;;
17955;SDS011;27666;51.498;11.966;2023-03-16T14:26:08;2.77;;;2.20;;
17955;SDS011;27666;51.498;11.966;2023-03-16T14:29:00;4.50;;;2.13;;
17955;SDS011;27666;51.498;11.966;2023-03-16T14:31:50;2.70;;;1.97;;
17955;SDS011;27666;51.498;11.966;2023-03-16T14:34:37;2.93;;;2.03;;
17955;SDS011;27666;51.498;11.966;2023-03-16T14:37:32;2.83;;;1.80;;
17955;SDS011;27666;51.498;11.966;2023-03-16T14:40:23;2.80;;;1.80;;
17955;SDS011;27666;51.498;11.966;2023-03-16T14:43:14;4.20;;;2.07;;
17955;SDS011;27666;51.498;11.966;2023-03-16T14:46:01;3.30;;;1.80;;
17955;SDS011;27666;51.498;11.966;2023-03-16T14:48:49;1.77;;;1.67;;
17955;SDS011;27666;51.498;11.966;2023-03-16T14:51:37;6.73;;;2.00;;
17955;SDS011;27666;51.498;11.966;2023-03-16T14:54:28;8.87;;;2.90;;
17955;SDS011;27666;51.498;11.966;2023-03-16T14:57:16;6.83;;;2.10;;
17955;SDS011;27666;51.498;11.966;2023-03-16T15:00:04;3.67;;;2.20;;
17955;SDS011;27666;51.498;11.966;2023-03-16T15:02:58;3.47;;;2.00;;
17955;SDS011;27666;51.498;11.966;2023-03-16T15:05:49;3.07;;;1.83;;
17955;SDS011;27666;51.498;11.966;2023-03-16T15:08:36;3.23;;;1.63;;
17955;SDS011;27666;51.498;11.966;2023-03-16T15:11:28;7.00;;;2.10;;
17955;SDS011;27666;51.498;11.966;2023-03-16T15:14:17;4.10;;;2.13;;
17955;SDS011;27666;51.498;11.966;2023-03-16T15:17:23;3.27;;;2.50;;
17955;SDS011;27666;51.498;11.966;2023-03-16T15:20:11;4.30;;;2.40;;
17955;SDS011;27666;51.498;11.966;2023-03-16T15:22:59;3.40;;;2.60;;
17955;SDS011;27666;51.498;11.966;2023-03-16T15:25:49;3.67;;;1.73;;
17955;SDS011;27666;51.498;11.966;2023-03-16T15:28:40;3.30;;;2.30;;
17955;SDS011;27666;51.498;11.966;2023-03-16T15:31:29;4.23;;;2.00;;
17955;SDS011;27666;51.498;11.966;2023-03-16T15:34:15;2.70;;;2.10;;
17955;SDS011;27666;51.498;11.966;2023-03-16T15:37:02;2.90;;;2.00;;
17955;SDS011;27666;51.498;11.966;2023-03-16T15:39:48;2.80;;;2.50;;
17955;SDS011;27666;51.498;11.966;2023-03-16T15:42:35;3.40;;;2.10;;
17955;SDS011;27666;51.498;11.966;2023-03-16T15:45:21;3.33;;;2.20;;
17955;SDS011;27666;51.498;11.966;2023-03-16T15:48:10;8.03;;;2.60;;
17955;SDS011;27666;51.498;11.966;2023-03-16T15:50:58;2.20;;;2.03;;
17955;SDS011;27666;51.498;11.966;2023-03-16T15:53:46;4.57;;;2.47;;
17955;SDS011;27666;51.498;11.966;2023-03-16T15:56:37;5.43;;;2.70;;
17955;SDS011;27666;51.498;11.966;2023-03-16T15:59:38;3.10;;;2.07;;
17955;SDS011;27666;51.498;11.966;2023-03-16T16:02:26;3.10;;;2.13;;
17955;SDS011;27666;51.498;11.966;2023-03-16T16:05:17;4.37;;;2.70;;
17955;SDS011;27666;51.498;11.966;2023-03-16T16:08:04;4.83;;;2.17;;
17955;SDS011;27666;51.498;11.966;2023-03-16T16:10:51;4.43;;;2.30;;
17955;SDS011;27666;51.498;11.966;2023-03-16T16:13:37;2.50;;;2.27;;
17955;SDS011;27666;51.498;11.966;2023-03-16T16:16:29;3.63;;;2.13;;
17955;SDS011;27666;51.498;11.966;2023-03-16T16:19:17;2.93;;;2.37;;
17955;SDS011;27666;51.498;11.966;2023-03-16T16:22:07;6.37;;;2.07;;
17955;SDS011;27666;51.498;11.966;2023-03-16T16:24:56;5.07;;;2.27;;
17955;SDS011;27666;51.498;11.966;2023-03-16T16:27:43;2.97;;;2.13;;
17955;SDS011;27666;51.498;11.966;2023-03-16T16:30:31;5.57;;;2.37;;
17955;SDS011;27666;51.498;11.966;2023-03-16T16:33:21;3.80;;;2.57;;
17955;SDS011;27666;51.498;11.966;2023-03-16T16:36:12;3.53;;;2.50;;
17955;SDS011;27666;51.498;11.966;2023-03-16T16:39:02;5.13;;;2.80;;
17955;SDS011;27666;51.498;11.966;2023-03-16T16:41:50;3.93;;;2.47;;
17955;SDS011;27666;51.498;11.966;2023-03-16T16:44:40;3.57;;;2.70;;
17955;SDS011;27666;51.498;11.966;2023-03-16T16:47:26;4.03;;;2.40;;
17955;SDS011;27666;51.498;11.966;2023-03-16T16:50:14;3.30;;;2.67;;
17955;SDS011;27666;51.498;11.966;2023-03-16T16:53:07;5.80;;;2.70;;
17955;SDS011;27666;51.498;11.966;2023-03-16T16:56:08;5.47;;;2.83;;
17955;SDS011;27666;51.498;11.966;2023-03-16T16:58:58;4.47;;;2.73;;